默认 日期 大小 文件数 浏览量 最新下载 xml
shore磁力链接相关资源由用户搜索指令自动获取,结果来源于网络,本站不存储任何资料,亦不承担任何责任,请于24小时内删除,搜索到6632个磁力,显示前4000条数据,用时4ms。
    ... ": 685936, "screen0004.png": 816525}, "geordie.shore.s16e09.web.h264-crossfit.mkv ... ": 422010219, "geordie.shore.s16e09.web.h264-crossfit.nfo ...
创建时间: 2018-12-17 19:12:34 大小:405.66 MB 文件数量:7 热度:7 最近下载:2022-04-23 06:22:35
    ... .S03E02.Bay.Area.Hysteria.Jersey.Shore.Haunting.480p.HDTV.x264-mSD ... .S03E02.Bay.Area.Hysteria.Jersey.Shore.Haunting.480p.HDTV.x264-mSD ...
创建时间: 2018-12-18 04:35:18 大小:251.61 MB 文件数量:4 热度:8 最近下载:2025-01-08 17:51:03
    {"Torrent Downloaded From ExtraTorrent.com.txt": 353, "Jersey.Shore.S06E03.Toxic.Shots.Syndrome.480p.WEB-DL.AAC2.0.H.264-PiXeL.mkv": 508765986}
创建时间: 2018-12-18 04:52:40 大小:485.2 MB 文件数量:2 热度:6 最近下载:2024-09-14 17:27:01
    ... org .txt": 691, "jersey.shore.family.vacation.s02e00.reunion.back ... .to.the.jersey.shore.web.x264-cookiemonster.mkv": ... 311104807, "jersey.shore.family.vacation.s02e00.reunion.back ... .to.the.jersey.shore.web.x264-cookiemonster.nfo": ...
创建时间: 2018-12-18 09:15:04 大小:299.98 MB 文件数量:7 热度:6 最近下载:2022-04-23 05:53:27
    {"RARBG.txt": 30, "Jersey.Shore.Family.Vacation.S02E08.Back.to.Seaside.720p.AMZN.WEB-DL.DDP2.0.H.264-NTb.mkv": 1280846504}
创建时间: 2018-12-18 09:20:39 大小:1.19 GB 文件数量:2 热度:7 最近下载:2022-04-23 06:20:12
    {"RARBG.txt": 30, "Floribama.Shore.S01E07.Drunken.Words.Sober.Thoughts.HDTV.x264-CRiMSON.mkv": 440471574, "floribama.shore.s01e07.drunken.words.sober.thoughts.hdtv.x264-crimson.nfo": 818}
创建时间: 2018-12-18 10:06:51 大小:420.07 MB 文件数量:3 热度:7 最近下载:2025-01-09 02:46:01
    {"Torrent downloaded from Demonoid.me.txt": 46, "jersey.shore.s04e02.hr.ws.pdtv.x264-orenji.mkv": 731719377}
创建时间: 2018-12-18 10:54:41 大小:697.82 MB 文件数量:2 热度:4 最近下载:2022-04-23 07:03:47
    {"RARBG.txt": 30, "Jersey.Shore.Family.Vacation.S02E17.Ronnie.Magros.Series.of.Unfortunate.Events.720p.HDTV.x264-CRiMSON.mkv": 1335227636, "jersey.shore.family.vacation.s02e17.ronnie.magros.series.of.unfortunate.events.720p.hdtv.x264-crimson.nfo": 849}
创建时间: 2018-12-18 12:17:25 大小:1.24 GB 文件数量:3 热度:5 最近下载:2025-02-18 11:54:02
    ... .TORRENTING.COM.txt": 84, "Floribama.Shore.S02E02.1080p.HEVC.x265-MeGusta ... .mkv": 527938182, "Floribama.Shore.S02E02.1080p.HEVC.x265-MeGusta ...
创建时间: 2018-12-18 12:22:27 大小:512.83 MB 文件数量:7 热度:5 最近下载:2022-04-23 06:48:06
    {"RARBG.txt": 30, "Floribama.Shore.S02E05.More.Than.a.Boo.Thang.HDTV.x264-CRiMSON.mkv": 392345133, "floribama.shore.s02e05.more.than.a.boo.thang.hdtv.x264-crimson.nfo": 810}
创建时间: 2018-12-18 22:23:07 大小:374.17 MB 文件数量:3 热度:8 最近下载:2025-05-16 07:42:02
    ... .descargas2020.com].avi": 502319104, "Jersey Shore Family Vacation - Temporada 2 [HDTV ... descargas2020.com].avi": 507865088, "Jersey Shore Family Vacation - Temporada 2 [HDTV ... descargas2020.com].avi": 507975680, "Jersey Shore Family Vacation - Temporada 2 [HDTV ...
创建时间: 2018-12-18 22:51:34 大小:1.89 GB 文件数量:7 热度:5 最近下载:2022-04-23 06:35:29
    {"cover.jpg": 24085, "Dewey Lambdin - A Hard, Cruel Shore; An Alan Lewrie Naval Adventure.epub": 1495763, "Dewey Lambdin - A Hard, Cruel Shore; An Alan Lewrie Naval Adventure.mobi": 2118644}
创建时间: 2018-12-18 23:04:19 大小:3.47 MB 文件数量:3 热度:7 最近下载:2025-02-09 22:59:01
    {"RARBG.txt": 30, "Jersey.Shore.Family.Vacation.S02E01.Its.Complicated.Oh.Canada.720p.HDTV.x264-CRiMSON.mkv": 2765905806, "jersey.shore.family.vacation.s02e01.its.complicated.oh.canada.720p.hdtv.x264-crimson.nfo": 832}
创建时间: 2018-12-18 23:18:40 大小:2.58 GB 文件数量:3 热度:7 最近下载:2025-08-03 18:19:01
    {"front.jpg": 278637, "foo_dr.txt": 1287, "4. Free Man.flac": 162391583, "8. Any Day Now.flac": 126174649, "1. Handle with Care.flac": 136804010, "2. Before You're Gone.flac": 102378355, "7. Train Called Freedom.flac": 123737448, "6. Just a Matter of Time. ...
创建时间: 2018-12-18 23:29:53 大小:917.91 MB 文件数量:10 热度:10 最近下载:2022-04-23 06:19:59
    {"cover.jpg": 961505, "foo_dr.txt": 5174, "51. Elanor.flac": 15849958, "46. Mount Doom.flac": 45283898, "48. The Eagles.flac": 22793942, "35. The Mumakil.flac": 11857392, "45. 'For Frodo'.flac": 37305423, "10. The Palantir.flac": 34269901, "53. Bilbo’s ...
创建时间: 2018-12-18 23:31:53 大小:2.29 GB 文件数量:55 热度:15 最近下载:2025-02-19 09:24:01
    {"RARBG.txt": 30, "Floribama.Shore.S02E04.Miss.La.Vela.720p.HDTV.x264-CRiMSON.mkv": 1250106038, "floribama.shore.s02e04.miss.la.vela.720p.hdtv.x264-crimson.nfo": 806}
创建时间: 2018-12-18 23:55:54 大小:1.16 GB 文件数量:3 热度:9 最近下载:2025-08-10 09:24:01
    ... ": 371315, "06 - Eyes on the Shore - Horizon.mp3": 10404361, "09 - ... ": 14411544, "11 - Eyes on the Shore - Flutter.mp3": 10914273, "05 - ... , "10 - Eyes on the Shore - Down the Middle.mp3": 12104428 ... , "02 - Eyes on the Shore - Roads to Nowhere.mp3": 9667726 ...
创建时间: 2018-12-18 23:59:22 大小:128.7 MB 文件数量:13 热度:6 最近下载:2025-09-17 21:13:02
    {"acapulco.shore.s02E05.HDTV.x264-GND.mp4": 209070205, "acapulco.shore.s02E05.HDTV.x264-GND.mp4_thumbs_[2015.10.07_03.51.39].jpg": 183073}
创建时间: 2018-12-19 00:33:53 大小:199.56 MB 文件数量:2 热度:6 最近下载:2025-02-08 22:16:03
    ... ": 382987, "screen0004.png": 320824}, "Geordie.Shore.S16E09.480p.x264-mSD.mkv ... ": 256299242, "Geordie.Shore.S16E09.480p.x264-mSD.nfo ...
创建时间: 2018-12-19 00:51:12 大小:245.67 MB 文件数量:7 热度:8 最近下载:2022-04-23 06:07:39
    ... .scenetime.com.txt": 103, "geordie.shore.s17e06.720p.web.h264-klingon ... .mkv": 833064635, "geordie.shore.s17e06.720p.web.h264-klingon ...
创建时间: 2018-12-19 00:51:45 大小:800.29 MB 文件数量:7 热度:6 最近下载:2022-04-23 05:55:27